Portada
METAR-TAF:

METAR-TAF

Aeropuertos :

Aeropuerto de Faro

Faro, Portugal

latitud: 37-01N, longitud: 007-58W, altitud: 7 m

Observación

El informe se hizo hace 24 minutos, a las 08:00 UTC
Viento 10 kt del este-noreste
Temperatura 12°C
Humedad 82%
Presión 1028 hPa
Visibilidad 10 km o más
Escasas nubes a una altura de 1800 ft

METAR: LPFR 220800Z 07010KT 9999 FEW018 12/09 Q1028

Hora: 08:24 (08:24 UTC)

Pronóstico

El informe se hizo hace 3 horas y 24 minutos, a las 05:00 UTC
Pronóstico válido del 22 a las 06 UTC al 23 a las 06 UTC
Viento 12 kt del este
Visibilidad 10 km o más
sin nubes por debajo de 1500 m y sin presencia de cumulonimbus.
Evolucionando progresivamente
del 22 a las 21 UTC al 22 a las 24 UTC
Viento 7 kt del noreste

TAF: LPFR 220500Z 2206/2306 09012KT CAVOK BECMG 2221/2224 04007KT

Observaciones y pronósticos meteorológicos de más de 4000 aeropuertos (mensajes METAR y TAF).

Los puntos amarillos y rojos representan las estaciones disponibles.

Ponga el ratón en el punto deseado para ver el nombre de la estación.

Haga clic para ver las observaciones y los pronósticos meteorológicos.

Para cambiar el mapa : haga clic en los botones verdes con una cruz de color negro para hacer un zoom, en el botón verde con un guión para alejar o en las flechas verdes para mapas adyacentes.


METAR-TAF: